sensor_id;sensor_type;location;lat;lon;timestamp;pressure;altitude;pressure_sealevel;temperature
64916;BMP280;51427;-27.442;153.014;2023-08-07T00:02:19;102658.31;;;18.82
64916;BMP280;51427;-27.442;153.014;2023-08-07T00:04:47;102658.38;;;19.17
64916;BMP280;51427;-27.442;153.014;2023-08-07T00:07:15;102653.97;;;19.21
64916;BMP280;51427;-27.442;153.014;2023-08-07T00:09:42;102650.97;;;19.13
64916;BMP280;51427;-27.442;153.014;2023-08-07T00:12:10;102648.13;;;19.02
64916;BMP280;51427;-27.442;153.014;2023-08-07T00:14:37;102649.69;;;18.86
64916;BMP280;51427;-27.442;153.014;2023-08-07T00:17:05;102642.31;;;19.67
64916;BMP280;51427;-27.442;153.014;2023-08-07T00:19:33;102642.75;;;19.75
64916;BMP280;51427;-27.442;153.014;2023-08-07T00:22:00;102636.50;;;19.32
64916;BMP280;51427;-27.442;153.014;2023-08-07T00:24:28;102630.44;;;20.32
64916;BMP280;51427;-27.442;153.014;2023-08-07T00:26:56;102616.66;;;20.51
64916;BMP280;51427;-27.442;153.014;2023-08-07T00:29:23;102620.97;;;20.03
64916;BMP280;51427;-27.442;153.014;2023-08-07T00:31:51;102609.44;;;20.90
64916;BMP280;51427;-27.442;153.014;2023-08-07T00:34:18;102607.69;;;21.20
64916;BMP280;51427;-27.442;153.014;2023-08-07T00:36:46;102598.34;;;21.49
64916;BMP280;51427;-27.442;153.014;2023-08-07T00:39:13;102589.09;;;21.33
64916;BMP280;51427;-27.442;153.014;2023-08-07T00:41:41;102585.06;;;21.86
64916;BMP280;51427;-27.442;153.014;2023-08-07T00:44:08;102587.63;;;21.29
64916;BMP280;51427;-27.442;153.014;2023-08-07T00:46:37;102583.28;;;21.02
64916;BMP280;51427;-27.442;153.014;2023-08-07T00:49:06;102589.19;;;21.02
64916;BMP280;51427;-27.442;153.014;2023-08-07T00:51:35;102579.53;;;21.36
64916;BMP280;51427;-27.442;153.014;2023-08-07T00:54:04;102568.44;;;21.24
64916;BMP280;51427;-27.442;153.014;2023-08-07T00:56:32;102558.06;;;22.10
64916;BMP280;51427;-27.442;153.014;2023-08-07T00:59:01;102554.66;;;22.63
64916;BMP280;51427;-27.442;153.014;2023-08-07T01:01:29;102559.19;;;21.92
64916;BMP280;51427;-27.442;153.014;2023-08-07T01:03:57;102545.00;;;22.80
64916;BMP280;51427;-27.442;153.014;2023-08-07T01:06:25;102550.72;;;22.05
64916;BMP280;51427;-27.442;153.014;2023-08-07T01:08:52;102548.97;;;21.36
64916;BMP280;51427;-27.442;153.014;2023-08-07T01:11:36;102554.31;;;21.61
64916;BMP280;51427;-27.442;153.014;2023-08-07T01:19:03;102532.78;;;22.85
64916;BMP280;51427;-27.442;153.014;2023-08-07T01:21:33;102522.69;;;22.58
64916;BMP280;51427;-27.442;153.014;2023-08-07T01:24:00;102536.69;;;20.86
64916;BMP280;51427;-27.442;153.014;2023-08-07T01:26:28;102522.78;;;22.56
64916;BMP280;51427;-27.442;153.014;2023-08-07T01:29:12;102512.59;;;22.16
64916;BMP280;51427;-27.442;153.014;2023-08-07T01:31:42;102513.84;;;21.97
64916;BMP280;51427;-27.442;153.014;2023-08-07T01:34:14;102524.94;;;21.13
64916;BMP280;51427;-27.442;153.014;2023-08-07T01:36:42;102510.19;;;21.04
64916;BMP280;51427;-27.442;153.014;2023-08-07T01:39:11;102509.19;;;20.33
64916;BMP280;51427;-27.442;153.014;2023-08-07T01:41:40;102505.91;;;21.04
64916;BMP280;51427;-27.442;153.014;2023-08-07T01:44:08;102492.81;;;22.72
64916;BMP280;51427;-27.442;153.014;2023-08-07T01:46:36;102484.84;;;22.12
64916;BMP280;51427;-27.442;153.014;2023-08-07T01:49:03;102487.28;;;21.04
64916;BMP280;51427;-27.442;153.014;2023-08-07T01:51:31;102487.31;;;20.59
64916;BMP280;51427;-27.442;153.014;2023-08-07T01:53:58;102483.84;;;20.31
64916;BMP280;51427;-27.442;153.014;2023-08-07T01:56:26;102472.66;;;20.49
64916;BMP280;51427;-27.442;153.014;2023-08-07T01:58:53;102466.19;;;20.43
64916;BMP280;51427;-27.442;153.014;2023-08-07T02:01:21;102462.63;;;20.17
64916;BMP280;51427;-27.442;153.014;2023-08-07T02:03:49;102466.69;;;20.35
64916;BMP280;51427;-27.442;153.014;2023-08-07T02:06:16;102458.59;;;20.73
64916;BMP280;51427;-27.442;153.014;2023-08-07T02:08:44;102455.69;;;20.49
64916;BMP280;51427;-27.442;153.014;2023-08-07T02:11:11;102456.38;;;20.22
64916;BMP280;51427;-27.442;153.014;2023-08-07T02:13:39;102448.81;;;20.36
64916;BMP280;51427;-27.442;153.014;2023-08-07T02:16:07;102441.34;;;20.78
64916;BMP280;51427;-27.442;153.014;2023-08-07T02:18:35;102448.72;;;20.38
64916;BMP280;51427;-27.442;153.014;2023-08-07T02:21:03;102448.56;;;20.41
64916;BMP280;51427;-27.442;153.014;2023-08-07T02:23:30;102448.66;;;20.24
64916;BMP280;51427;-27.442;153.014;2023-08-07T02:25:58;102441.53;;;20.15
64916;BMP280;51427;-27.442;153.014;2023-08-07T02:28:26;102440.63;;;20.31
64916;BMP280;51427;-27.442;153.014;2023-08-07T02:30:54;102441.47;;;20.16
64916;BMP280;51427;-27.442;153.014;2023-08-07T02:33:22;102440.47;;;20.34
64916;BMP280;51427;-27.442;153.014;2023-08-07T02:35:49;102440.75;;;20.43
64916;BMP280;51427;-27.442;153.014;2023-08-07T02:38:17;102441.94;;;20.52
64916;BMP280;51427;-27.442;153.014;2023-08-07T02:40:45;102425.81;;;20.82
64916;BMP280;51427;-27.442;153.014;2023-08-07T02:43:13;102429.03;;;20.70
64916;BMP280;51427;-27.442;153.014;2023-08-07T02:45:40;102428.19;;;20.85
64916;BMP280;51427;-27.442;153.014;2023-08-07T02:48:08;102417.09;;;21.00
64916;BMP280;51427;-27.442;153.014;2023-08-07T02:50:36;102412.72;;;20.88
64916;BMP280;51427;-27.442;153.014;2023-08-07T02:53:03;102413.72;;;20.86
64916;BMP280;51427;-27.442;153.014;2023-08-07T02:55:31;102408.53;;;20.29
64916;BMP280;51427;-27.442;153.014;2023-08-07T02:57:58;102412.69;;;20.16
64916;BMP280;51427;-27.442;153.014;2023-08-07T03:00:26;102409.16;;;20.18
64916;BMP280;51427;-27.442;153.014;2023-08-07T03:02:54;102409.28;;;20.01
64916;BMP280;51427;-27.442;153.014;2023-08-07T03:05:21;102406.59;;;19.89
64916;BMP280;51427;-27.442;153.014;2023-08-07T03:07:49;102412.47;;;20.05
64916;BMP280;51427;-27.442;153.014;2023-08-07T03:10:17;102406.56;;;19.74
64916;BMP280;51427;-27.442;153.014;2023-08-07T03:12:44;102408.69;;;19.51
64916;BMP280;51427;-27.442;153.014;2023-08-07T03:15:12;102415.25;;;19.54
64916;BMP280;51427;-27.442;153.014;2023-08-07T03:17:40;102410.44;;;19.18
64916;BMP280;51427;-27.442;153.014;2023-08-07T03:20:08;102417.28;;;19.01
64916;BMP280;51427;-27.442;153.014;2023-08-07T03:22:36;102415.88;;;18.78
64916;BMP280;51427;-27.442;153.014;2023-08-07T03:25:04;102422.25;;;18.85
64916;BMP280;51427;-27.442;153.014;2023-08-07T03:27:32;102414.22;;;18.60
64916;BMP280;51427;-27.442;153.014;2023-08-07T03:29:59;102411.22;;;18.86
64916;BMP280;51427;-27.442;153.014;2023-08-07T03:32:27;102415.09;;;18.76
64916;BMP280;51427;-27.442;153.014;2023-08-07T03:34:54;102411.06;;;18.39
64916;BMP280;51427;-27.442;153.014;2023-08-07T03:37:22;102415.38;;;18.20
64916;BMP280;51427;-27.442;153.014;2023-08-07T03:39:50;102412.00;;;18.38
64916;BMP280;51427;-27.442;153.014;2023-08-07T03:42:17;102404.34;;;18.88
64916;BMP280;51427;-27.442;153.014;2023-08-07T03:44:45;102400.16;;;19.04
64916;BMP280;51427;-27.442;153.014;2023-08-07T03:47:13;102390.00;;;19.04
64916;BMP280;51427;-27.442;153.014;2023-08-07T03:49:41;102387.53;;;19.35
64916;BMP280;51427;-27.442;153.014;2023-08-07T03:52:08;102385.88;;;19.34
64916;BMP280;51427;-27.442;153.014;2023-08-07T03:54:36;102378.00;;;19.23
64916;BMP280;51427;-27.442;153.014;2023-08-07T03:57:04;102377.59;;;18.98
64916;BMP280;51427;-27.442;153.014;2023-08-07T03:59:32;102374.94;;;19.49
64916;BMP280;51427;-27.442;153.014;2023-08-07T04:02:00;102379.34;;;19.60
64916;BMP280;51427;-27.442;153.014;2023-08-07T04:04:27;102379.69;;;19.85
64916;BMP280;51427;-27.442;153.014;2023-08-07T04:06:55;102375.22;;;20.04
64916;BMP280;51427;-27.442;153.014;2023-08-07T04:09:22;102367.97;;;19.67
64916;BMP280;51427;-27.442;153.014;2023-08-07T04:11:50;102373.47;;;19.60
64916;BMP280;51427;-27.442;153.014;2023-08-07T04:14:18;102374.41;;;20.03
64916;BMP280;51427;-27.442;153.014;2023-08-07T04:16:45;102375.94;;;20.21
64916;BMP280;51427;-27.442;153.014;2023-08-07T04:19:13;102377.56;;;20.22
64916;BMP280;51427;-27.442;153.014;2023-08-07T04:21:40;102367.09;;;20.42
64916;BMP280;51427;-27.442;153.014;2023-08-07T04:24:08;102370.53;;;20.41
64916;BMP280;51427;-27.442;153.014;2023-08-07T04:26:37;102376.66;;;20.52
64916;BMP280;51427;-27.442;153.014;2023-08-07T04:29:06;102380.53;;;20.15
64916;BMP280;51427;-27.442;153.014;2023-08-07T04:31:34;102377.56;;;20.22
64916;BMP280;51427;-27.442;153.014;2023-08-07T04:34:01;102379.00;;;20.12
64916;BMP280;51427;-27.442;153.014;2023-08-07T04:36:29;102374.72;;;20.13
64916;BMP280;51427;-27.442;153.014;2023-08-07T04:38:56;102387.81;;;19.92
64916;BMP280;51427;-27.442;153.014;2023-08-07T04:41:24;102391.63;;;19.68
64916;BMP280;51427;-27.442;153.014;2023-08-07T04:43:51;102408.47;;;18.74
64916;BMP280;51427;-27.442;153.014;2023-08-07T04:46:19;102403.34;;;18.59
64916;BMP280;51427;-27.442;153.014;2023-08-07T04:48:47;102395.44;;;18.48
64916;BMP280;51427;-27.442;153.014;2023-08-07T04:51:15;102392.91;;;18.48
64916;BMP280;51427;-27.442;153.014;2023-08-07T04:53:42;102389.00;;;18.74
64916;BMP280;51427;-27.442;153.014;2023-08-07T04:56:10;102397.66;;;18.70
64916;BMP280;51427;-27.442;153.014;2023-08-07T04:58:38;102400.03;;;18.23
64916;BMP280;51427;-27.442;153.014;2023-08-07T05:01:05;102406.75;;;18.06
64916;BMP280;51427;-27.442;153.014;2023-08-07T05:03:33;102420.97;;;17.91
64916;BMP280;51427;-27.442;153.014;2023-08-07T05:06:01;102415.13;;;17.89
64916;BMP280;51427;-27.442;153.014;2023-08-07T05:08:29;102410.69;;;17.94
64916;BMP280;51427;-27.442;153.014;2023-08-07T05:10:57;102421.72;;;17.93
64916;BMP280;51427;-27.442;153.014;2023-08-07T05:13:24;102420.75;;;18.14
64916;BMP280;51427;-27.442;153.014;2023-08-07T05:15:52;102430.19;;;17.92
64916;BMP280;51427;-27.442;153.014;2023-08-07T05:18:20;102427.06;;;17.87
64916;BMP280;51427;-27.442;153.014;2023-08-07T05:20:47;102433.22;;;17.82
64916;BMP280;51427;-27.442;153.014;2023-08-07T05:23:15;102428.00;;;17.85
64916;BMP280;51427;-27.442;153.014;2023-08-07T05:25:45;102435.38;;;18.08
64916;BMP280;51427;-27.442;153.014;2023-08-07T05:28:14;102420.75;;;18.14
64916;BMP280;51427;-27.442;153.014;2023-08-07T05:30:41;102424.38;;;18.09
64916;BMP280;51427;-27.442;153.014;2023-08-07T05:33:09;102424.44;;;18.07
64916;BMP280;51427;-27.442;153.014;2023-08-07T05:35:38;102434.72;;;17.86
64916;BMP280;51427;-27.442;153.014;2023-08-07T05:38:06;102432.84;;;17.72
64916;BMP280;51427;-27.442;153.014;2023-08-07T05:40:34;102429.38;;;17.73
64916;BMP280;51427;-27.442;153.014;2023-08-07T05:43:03;102431.72;;;17.78
64916;BMP280;51427;-27.442;153.014;2023-08-07T05:45:31;102434.91;;;17.63
64916;BMP280;51427;-27.442;153.014;2023-08-07T05:47:58;102433.22;;;17.64
64916;BMP280;51427;-27.442;153.014;2023-08-07T05:50:26;102440.63;;;17.68
64916;BMP280;51427;-27.442;153.014;2023-08-07T05:52:54;102438.50;;;17.59
64916;BMP280;51427;-27.442;153.014;2023-08-07T05:55:22;102445.13;;;17.62
64916;BMP280;51427;-27.442;153.014;2023-08-07T05:57:49;102449.91;;;17.67
64916;BMP280;51427;-27.442;153.014;2023-08-07T06:00:17;102448.69;;;17.58
64916;BMP280;51427;-27.442;153.014;2023-08-07T06:02:46;102449.63;;;17.55
64916;BMP280;51427;-27.442;153.014;2023-08-07T06:05:14;102452.03;;;17.76
64916;BMP280;51427;-27.442;153.014;2023-08-07T06:07:43;102451.38;;;17.91
64916;BMP280;51427;-27.442;153.014;2023-08-07T06:10:10;102455.56;;;18.09
64916;BMP280;51427;-27.442;153.014;2023-08-07T06:12:38;102457.44;;;18.06
64916;BMP280;51427;-27.442;153.014;2023-08-07T06:15:06;102462.25;;;17.93
64916;BMP280;51427;-27.442;153.014;2023-08-07T06:17:34;102464.31;;;17.85
64916;BMP280;51427;-27.442;153.014;2023-08-07T06:20:01;102465.94;;;17.68
64916;BMP280;51427;-27.442;153.014;2023-08-07T06:22:31;102473.53;;;17.86
64916;BMP280;51427;-27.442;153.014;2023-08-07T06:24:59;102475.09;;;17.70
64916;BMP280;51427;-27.442;153.014;2023-08-07T06:27:27;102484.13;;;17.58
64916;BMP280;51427;-27.442;153.014;2023-08-07T06:29:54;102479.59;;;17.46
64916;BMP280;51427;-27.442;153.014;2023-08-07T06:32:22;102484.53;;;17.49
64916;BMP280;51427;-27.442;153.014;2023-08-07T06:34:50;102479.31;;;17.52
64916;BMP280;51427;-27.442;153.014;2023-08-07T06:37:17;102484.41;;;17.70
64916;BMP280;51427;-27.442;153.014;2023-08-07T06:39:45;102486.34;;;17.83
64916;BMP280;51427;-27.442;153.014;2023-08-07T06:42:13;102488.59;;;17.89
64916;BMP280;51427;-27.442;153.014;2023-08-07T06:44:40;102492.09;;;17.87
64916;BMP280;51427;-27.442;153.014;2023-08-07T06:47:08;102495.16;;;17.93
64916;BMP280;51427;-27.442;153.014;2023-08-07T06:49:36;102495.50;;;17.86
64916;BMP280;51427;-27.442;153.014;2023-08-07T06:52:04;102491.13;;;17.89
64916;BMP280;51427;-27.442;153.014;2023-08-07T06:54:32;102500.44;;;17.89
64916;BMP280;51427;-27.442;153.014;2023-08-07T06:56:59;102498.50;;;17.94
64916;BMP280;51427;-27.442;153.014;2023-08-07T06:59:27;102502.09;;;17.90
64916;BMP280;51427;-27.442;153.014;2023-08-07T07:01:54;102505.34;;;17.73
64916;BMP280;51427;-27.442;153.014;2023-08-07T07:04:22;102500.84;;;17.80
64916;BMP280;51427;-27.442;153.014;2023-08-07T07:06:50;102511.69;;;17.83
64916;BMP280;51427;-27.442;153.014;2023-08-07T07:09:18;102512.06;;;17.74
64916;BMP280;51427;-27.442;153.014;2023-08-07T07:11:45;102514.59;;;17.74
64916;BMP280;51427;-27.442;153.014;2023-08-07T07:14:13;102519.34;;;17.44
64916;BMP280;51427;-27.442;153.014;2023-08-07T07:16:40;102532.31;;;17.17
64916;BMP280;51427;-27.442;153.014;2023-08-07T07:19:08;102528.72;;;17.22
64916;BMP280;51427;-27.442;153.014;2023-08-07T07:21:36;102519.28;;;17.45
64916;BMP280;51427;-27.442;153.014;2023-08-07T07:24:04;102531.88;;;17.47
64916;BMP280;51427;-27.442;153.014;2023-08-07T07:26:33;102535.28;;;17.46
64916;BMP280;51427;-27.442;153.014;2023-08-07T07:29:00;102535.09;;;17.50
64916;BMP280;51427;-27.442;153.014;2023-08-07T07:31:28;102543.84;;;17.62
64916;BMP280;51427;-27.442;153.014;2023-08-07T07:33:56;102552.50;;;17.38
64916;BMP280;51427;-27.442;153.014;2023-08-07T07:36:23;102547.97;;;17.26
64916;BMP280;51427;-27.442;153.014;2023-08-07T07:38:51;102545.53;;;17.43
64916;BMP280;51427;-27.442;153.014;2023-08-07T07:41:18;102552.75;;;17.32
64916;BMP280;51427;-27.442;153.014;2023-08-07T07:43:47;102562.50;;;17.41
64916;BMP280;51427;-27.442;153.014;2023-08-07T07:46:14;102560.72;;;17.43
64916;BMP280;51427;-27.442;153.014;2023-08-07T07:48:42;102570.97;;;17.40
64916;BMP280;51427;-27.442;153.014;2023-08-07T07:51:10;102566.81;;;17.39
64916;BMP280;51427;-27.442;153.014;2023-08-07T07:53:37;102566.19;;;17.34
64916;BMP280;51427;-27.442;153.014;2023-08-07T07:56:05;102562.06;;;17.31
64916;BMP280;51427;-27.442;153.014;2023-08-07T07:58:36;102570.34;;;17.35
64916;BMP280;51427;-27.442;153.014;2023-08-07T08:01:04;102573.00;;;17.32
64916;BMP280;51427;-27.442;153.014;2023-08-07T08:03:31;102568.72;;;17.34
64916;BMP280;51427;-27.442;153.014;2023-08-07T08:09:20;102562.91;;;17.11
64916;BMP280;51427;-27.442;153.014;2023-08-07T08:11:47;102568.72;;;17.13
64916;BMP280;51427;-27.442;153.014;2023-08-07T08:14:15;102575.50;;;17.12
64916;BMP280;51427;-27.442;153.014;2023-08-07T08:16:43;102574.53;;;17.15
64916;BMP280;51427;-27.442;153.014;2023-08-07T08:19:10;102576.25;;;17.14
64916;BMP280;51427;-27.442;153.014;2023-08-07T08:21:38;102572.31;;;17.07
64916;BMP280;51427;-27.442;153.014;2023-08-07T08:24:06;102582.41;;;17.07
64916;BMP280;51427;-27.442;153.014;2023-08-07T08:26:34;102584.06;;;17.08
64916;BMP280;51427;-27.442;153.014;2023-08-07T08:29:01;102581.97;;;16.98
64916;BMP280;51427;-27.442;153.014;2023-08-07T08:31:29;102586.91;;;17.01
64916;BMP280;51427;-27.442;153.014;2023-08-07T08:33:57;102593.03;;;16.95
64916;BMP280;51427;-27.442;153.014;2023-08-07T08:36:24;102599.47;;;16.82
64916;BMP280;51427;-27.442;153.014;2023-08-07T08:38:52;102594.94;;;16.90
64916;BMP280;51427;-27.442;153.014;2023-08-07T08:41:20;102602.97;;;16.78
64916;BMP280;51427;-27.442;153.014;2023-08-07T08:43:51;102612.13;;;16.82
64916;BMP280;51427;-27.442;153.014;2023-08-07T08:46:23;102605.28;;;16.84
64916;BMP280;51427;-27.442;153.014;2023-08-07T08:48:56;102611.91;;;16.87
64916;BMP280;51427;-27.442;153.014;2023-08-07T08:51:25;102613.09;;;16.78
64916;BMP280;51427;-27.442;153.014;2023-08-07T08:53:53;102610.22;;;16.66
64916;BMP280;51427;-27.442;153.014;2023-08-07T08:56:23;102617.75;;;16.68
64916;BMP280;51427;-27.442;153.014;2023-08-07T08:58:51;102622.84;;;16.66
64916;BMP280;51427;-27.442;153.014;2023-08-07T09:01:19;102623.22;;;16.78
64916;BMP280;51427;-27.442;153.014;2023-08-07T09:03:48;102624.88;;;16.79
64916;BMP280;51427;-27.442;153.014;2023-08-07T09:06:16;102632.78;;;16.71
64916;BMP280;51427;-27.442;153.014;2023-08-07T09:08:44;102629.75;;;16.63
64916;BMP280;51427;-27.442;153.014;2023-08-07T09:11:13;102628.97;;;16.61
64916;BMP280;51427;-27.442;153.014;2023-08-07T09:13:41;102624.69;;;16.63
64916;BMP280;51427;-27.442;153.014;2023-08-07T09:16:13;102640.56;;;16.66
64916;BMP280;51427;-27.442;153.014;2023-08-07T09:18:41;102634.56;;;16.69
64916;BMP280;51427;-27.442;153.014;2023-08-07T09:21:09;102643.13;;;16.65
64916;BMP280;51427;-27.442;153.014;2023-08-07T09:23:37;102656.91;;;16.58
64916;BMP280;51427;-27.442;153.014;2023-08-07T09:26:05;102654.00;;;16.45
64916;BMP280;51427;-27.442;153.014;2023-08-07T09:28:33;102654.03;;;16.44
64916;BMP280;51427;-27.442;153.014;2023-08-07T09:31:01;102661.34;;;16.51
64916;BMP280;51427;-27.442;153.014;2023-08-07T09:33:30;102664.03;;;16.47
64916;BMP280;51427;-27.442;153.014;2023-08-07T09:36:01;102661.34;;;16.51
64916;BMP280;51427;-27.442;153.014;2023-08-07T09:38:30;102656.00;;;16.59
64916;BMP280;51427;-27.442;153.014;2023-08-07T09:41:02;102660.84;;;16.65
64916;BMP280;51427;-27.442;153.014;2023-08-07T09:43:35;102659.97;;;16.66
64916;BMP280;51427;-27.442;153.014;2023-08-07T09:46:07;102670.06;;;16.66
64916;BMP280;51427;-27.442;153.014;2023-08-07T09:48:42;102656.91;;;16.58
64916;BMP280;51427;-27.442;153.014;2023-08-07T09:51:10;102659.06;;;16.67
64916;BMP280;51427;-27.442;153.014;2023-08-07T09:53:38;102664.00;;;16.70
64916;BMP280;51427;-27.442;153.014;2023-08-07T09:56:07;102659.84;;;16.69
64916;BMP280;51427;-27.442;153.014;2023-08-07T09:58:35;102657.38;;;16.67
64916;BMP280;51427;-27.442;153.014;2023-08-07T10:01:05;102659.41;;;16.58
64916;BMP280;51427;-27.442;153.014;2023-08-07T10:03:35;102652.53;;;16.61
64916;BMP280;51427;-27.442;153.014;2023-08-07T10:06:03;102652.53;;;16.61
64916;BMP280;51427;-27.442;153.014;2023-08-07T10:08:32;102655.88;;;16.62
64916;BMP280;51427;-27.442;153.014;2023-08-07T10:11:02;102661.53;;;16.68
64916;BMP280;51427;-27.442;153.014;2023-08-07T10:13:30;102653.03;;;16.71
64916;BMP280;51427;-27.442;153.014;2023-08-07T10:15:59;102663.25;;;16.68
64916;BMP280;51427;-27.442;153.014;2023-08-07T10:18:27;102661.59;;;16.67
64916;BMP280;51427;-27.442;153.014;2023-08-07T10:20:56;102666.53;;;16.70
64916;BMP280;51427;-27.442;153.014;2023-08-07T10:23:25;102668.63;;;16.59
64916;BMP280;51427;-27.442;153.014;2023-08-07T10:25:53;102673.53;;;16.63
64916;BMP280;51427;-27.442;153.014;2023-08-07T10:28:22;102665.78;;;16.68
64916;BMP280;51427;-27.442;153.014;2023-08-07T10:30:51;102669.47;;;16.80
64916;BMP280;51427;-27.442;153.014;2023-08-07T10:33:20;102667.75;;;16.82
64916;BMP280;51427;-27.442;153.014;2023-08-07T10:35:48;102670.66;;;16.72
64916;BMP280;51427;-27.442;153.014;2023-08-07T10:38:19;102681.81;;;16.67
64916;BMP280;51427;-27.442;153.014;2023-08-07T10:41:14;102683.38;;;16.71
64916;BMP280;51427;-27.442;153.014;2023-08-07T10:43:43;102685.13;;;16.69
64916;BMP280;51427;-27.442;153.014;2023-08-07T10:46:14;102687.59;;;16.70
64916;BMP280;51427;-27.442;153.014;2023-08-07T10:48:46;102690.28;;;16.66
64916;BMP280;51427;-27.442;153.014;2023-08-07T10:51:17;102682.59;;;16.69
64916;BMP280;51427;-27.442;153.014;2023-08-07T10:53:49;102685.50;;;16.58
64916;BMP280;51427;-27.442;153.014;2023-08-07T10:56:33;102678.56;;;16.63
64916;BMP280;51427;-27.442;153.014;2023-08-07T10:59:09;102685.25;;;16.66
64916;BMP280;51427;-27.442;153.014;2023-08-07T11:01:49;102691.16;;;16.65
64916;BMP280;51427;-27.442;153.014;2023-08-07T11:04:18;102685.34;;;16.63
64916;BMP280;51427;-27.442;153.014;2023-08-07T11:06:48;102683.81;;;16.59
64916;BMP280;51427;-27.442;153.014;2023-08-07T11:09:16;102683.16;;;16.54
64916;BMP280;51427;-27.442;153.014;2023-08-07T11:11:48;102682.38;;;16.52
64916;BMP280;51427;-27.442;153.014;2023-08-07T11:14:18;102681.31;;;16.57
64916;BMP280;51427;-27.442;153.014;2023-08-07T11:16:48;102678.84;;;16.56
64916;BMP280;51427;-27.442;153.014;2023-08-07T11:19:17;102678.97;;;16.53
64916;BMP280;51427;-27.442;153.014;2023-08-07T11:21:46;102684.75;;;16.56
64916;BMP280;51427;-27.442;153.014;2023-08-07T11:24:16;102677.44;;;16.49
64916;BMP280;51427;-27.442;153.014;2023-08-07T11:26:47;102684.91;;;16.52
64916;BMP280;51427;-27.442;153.014;2023-08-07T11:29:20;102672.28;;;16.52
64916;BMP280;51427;-27.442;153.014;2023-08-07T11:31:51;102688.00;;;16.60
64916;BMP280;51427;-27.442;153.014;2023-08-07T11:34:19;102682.50;;;16.49
64916;BMP280;51427;-27.442;153.014;2023-08-07T11:36:47;102683.09;;;16.55
64916;BMP280;51427;-27.442;153.014;2023-08-07T11:39:15;102678.31;;;16.48
64916;BMP280;51427;-27.442;153.014;2023-08-07T11:41:43;102670.69;;;16.49
64916;BMP280;51427;-27.442;153.014;2023-08-07T11:44:11;102681.72;;;16.24
64916;BMP280;51427;-27.442;153.014;2023-08-07T11:46:39;102675.50;;;16.32
64916;BMP280;51427;-27.442;153.014;2023-08-07T11:49:08;102685.84;;;16.27
64916;BMP280;51427;-27.442;153.014;2023-08-07T11:51:37;102676.56;;;16.27
64916;BMP280;51427;-27.442;153.014;2023-08-07T11:54:05;102674.78;;;16.29
64916;BMP280;51427;-27.442;153.014;2023-08-07T11:56:33;102681.03;;;16.19
64916;BMP280;51427;-27.442;153.014;2023-08-07T11:59:03;102686.03;;;15.96
64916;BMP280;51427;-27.442;153.014;2023-08-07T12:01:30;102678.00;;;16.10
64916;BMP280;51427;-27.442;153.014;2023-08-07T12:06:37;102677.47;;;16.00
64916;BMP280;51427;-27.442;153.014;2023-08-07T12:09:12;102677.63;;;15.96
64916;BMP280;51427;-27.442;153.014;2023-08-07T12:11:40;102678.88;;;15.85
64916;BMP280;51427;-27.442;153.014;2023-08-07T12:14:08;102679.19;;;15.76
64916;BMP280;51427;-27.442;153.014;2023-08-07T12:16:35;102682.28;;;15.58
64916;BMP280;51427;-27.442;153.014;2023-08-07T12:19:04;102681.56;;;15.54
64916;BMP280;51427;-27.442;153.014;2023-08-07T12:21:32;102674.19;;;15.48
64916;BMP280;51427;-27.442;153.014;2023-08-07T12:24:00;102681.03;;;15.45
64916;BMP280;51427;-27.442;153.014;2023-08-07T12:26:28;102682.19;;;15.61
64916;BMP280;51427;-27.442;153.014;2023-08-07T12:28:56;102671.22;;;15.36
64916;BMP280;51427;-27.442;153.014;2023-08-07T12:31:23;102678.13;;;15.57
64916;BMP280;51427;-27.442;153.014;2023-08-07T12:33:51;102672.84;;;15.39
64916;BMP280;51427;-27.442;153.014;2023-08-07T12:36:18;102671.38;;;15.57
64916;BMP280;51427;-27.442;153.014;2023-08-07T12:38:46;102674.22;;;15.47
64916;BMP280;51427;-27.442;153.014;2023-08-07T12:41:14;102670.25;;;15.40
64916;BMP280;51427;-27.442;153.014;2023-08-07T12:43:41;102670.06;;;15.46
64916;BMP280;51427;-27.442;153.014;2023-08-07T12:46:09;102666.19;;;15.36
64916;BMP280;51427;-27.442;153.014;2023-08-07T12:48:37;102667.94;;;15.34
64916;BMP280;51427;-27.442;153.014;2023-08-07T12:51:04;102661.88;;;15.40
64916;BMP280;51427;-27.442;153.014;2023-08-07T12:53:32;102665.91;;;15.45
64916;BMP280;51427;-27.442;153.014;2023-08-07T12:55:59;102655.22;;;15.37
64916;BMP280;51427;-27.442;153.014;2023-08-07T12:58:28;102658.56;;;15.38
64916;BMP280;51427;-27.442;153.014;2023-08-07T13:00:56;102656.34;;;15.29
64916;BMP280;51427;-27.442;153.014;2023-08-07T13:03:24;102651.06;;;15.09
64916;BMP280;51427;-27.442;153.014;2023-08-07T13:05:51;102651.34;;;15.27
64916;BMP280;51427;-27.442;153.014;2023-08-07T13:08:19;102645.94;;;15.12
64916;BMP280;51427;-27.442;153.014;2023-08-07T13:10:47;102640.53;;;14.96
64916;BMP280;51427;-27.442;153.014;2023-08-07T13:13:14;102641.41;;;15.23
64916;BMP280;51427;-27.442;153.014;2023-08-07T13:15:42;102633.63;;;15.01
64916;BMP280;51427;-27.442;153.014;2023-08-07T13:18:09;102636.28;;;14.97
64916;BMP280;51427;-27.442;153.014;2023-08-07T13:20:37;102635.03;;;14.84
64916;BMP280;51427;-27.442;153.014;2023-08-07T13:23:05;102630.03;;;14.83
64916;BMP280;51427;-27.442;153.014;2023-08-07T13:25:33;102633.31;;;14.85
64916;BMP280;51427;-27.442;153.014;2023-08-07T13:28:01;102624.75;;;14.90
64916;BMP280;51427;-27.442;153.014;2023-08-07T13:30:33;102619.84;;;14.86
64916;BMP280;51427;-27.442;153.014;2023-08-07T13:33:01;102622.50;;;14.81
64916;BMP280;51427;-27.442;153.014;2023-08-07T13:35:28;102622.09;;;14.67
64916;BMP280;51427;-27.442;153.014;2023-08-07T13:37:56;102615.75;;;14.82
64916;BMP280;51427;-27.442;153.014;2023-08-07T13:40:24;102621.81;;;14.76